KLM912 EDDH-LIRF
Flight info
| Callsign | KLM912 |
|---|---|
| Flight time | 1h 57m |
| Altitude | 37000 |
| Route | AMLUH2C AMLUH M852 DENIX DCT ZUCKA DCT MOOCE DCT BERAS M736 LIZUM N503 LIKDA DCT BAKOR DCT VESAL DCT VIC DCT KOPER DCT SUKOM DCT GAVRA DCT RITEB |
| Aircraft | B738/M-SDE2E3FGHIRWXY/LB1 |
Departure
| Time | 2026-05-06 07:39 |
|---|---|
| Airport | Hamburg Helmut Schmidt Airport (EDDH) |
Arrival
| Time | 2026-05-06 09:36 |
|---|---|
| Airport | Rome–Fiumicino Leonardo da Vinci International Airport (LIRF) |
| Time | Latitude | Longitude | Altitude | Speed | Heading |
|---|---|---|---|---|---|
| 2026-05-06 07:20 | 53.62943 | 10.00287 | 48 ft | 0 kts | 122° |
| 2026-05-06 07:32 | 53.62945 | 10.00281 | 48 ft | 3 kts | 122° |
| 2026-05-06 07:33 | 53.62960 | 10.00243 | 48 ft | 4 kts | 122° |
| 2026-05-06 07:33 | 53.62974 | 10.00205 | 48 ft | 3 kts | 122° |
| 2026-05-06 07:33 | 53.62987 | 10.00175 | 48 ft | 4 kts | 144° |
| 2026-05-06 07:33 | 53.63009 | 10.00164 | 48 ft | 4 kts | 198° |
| 2026-05-06 07:34 | 53.63032 | 10.00184 | 48 ft | 2 kts | 212° |
| 2026-05-06 07:34 | 53.63034 | 10.00186 | 46 ft | 0 kts | 212° |
| 2026-05-06 07:36 | 53.63033 | 10.00185 | 48 ft | 1 kts | 212° |
| 2026-05-06 07:36 | 53.63017 | 10.00168 | 45 ft | 5 kts | 212° |
| 2026-05-06 07:37 | 53.62970 | 10.00117 | 48 ft | 11 kts | 216° |
| 2026-05-06 07:37 | 53.62923 | 10.00000 | 45 ft | 11 kts | 242° |
| 2026-05-06 07:37 | 53.62885 | 9.99878 | 46 ft | 13 kts | 242° |
| 2026-05-06 07:37 | 53.62878 | 9.99742 | 44 ft | 10 kts | 309° |
| 2026-05-06 07:38 | 53.62908 | 9.99708 | 44 ft | 9 kts | 331° |
| 2026-05-06 07:38 | 53.63148 | 9.99503 | 45 ft | 72 kts | 333° |
| 2026-05-06 07:38 | 53.63792 | 9.98944 | 45 ft | 134 kts | 333° |
| 2026-05-06 07:38 | 53.64777 | 9.98098 | 171 ft | 174 kts | 333° |
| 2026-05-06 07:39 | 53.65859 | 9.97165 | 980 ft | 176 kts | 334° |
| 2026-05-06 07:39 | 53.66993 | 9.96199 | 1727 ft | 190 kts | 334° |
| 2026-05-06 07:39 | 53.68235 | 9.95154 | 2331 ft | 206 kts | 338° |
| 2026-05-06 07:39 | 53.69648 | 9.94684 | 3090 ft | 210 kts | 1° |
| 2026-05-06 07:40 | 53.71109 | 9.94660 | 3983 ft | 212 kts | 3° |
| 2026-05-06 07:40 | 53.72549 | 9.95255 | 4972 ft | 212 kts | 33° |
| 2026-05-06 07:40 | 53.73531 | 9.97094 | 5912 ft | 216 kts | 68° |
| 2026-05-06 07:40 | 53.73912 | 9.99520 | 6782 ft | 221 kts | 78° |
| 2026-05-06 07:41 | 53.74155 | 10.02105 | 7645 ft | 227 kts | 90° |
| 2026-05-06 07:41 | 53.73836 | 10.04736 | 8466 ft | 236 kts | 113° |
| 2026-05-06 07:41 | 53.73039 | 10.07273 | 9088 ft | 253 kts | 118° |
| 2026-05-06 07:41 | 53.72128 | 10.09935 | 9676 ft | 271 kts | 120° |
| 2026-05-06 07:42 | 53.71150 | 10.12763 | 10247 ft | 288 kts | 120° |
| 2026-05-06 07:42 | 53.70112 | 10.15774 | 10759 ft | 305 kts | 122° |
| 2026-05-06 07:42 | 53.68729 | 10.18605 | 11254 ft | 322 kts | 136° |
| 2026-05-06 07:42 | 53.66879 | 10.20896 | 11708 ft | 339 kts | 152° |
| 2026-05-06 07:43 | 53.64630 | 10.22341 | 12275 ft | 352 kts | 164° |
| 2026-05-06 07:43 | 53.62238 | 10.23445 | 12978 ft | 360 kts | 165° |
| 2026-05-06 07:43 | 53.59802 | 10.24538 | 13764 ft | 365 kts | 165° |
| 2026-05-06 07:43 | 53.57333 | 10.25649 | 14553 ft | 370 kts | 165° |
| 2026-05-06 07:44 | 53.54838 | 10.26788 | 15346 ft | 373 kts | 165° |
| 2026-05-06 07:44 | 53.52320 | 10.27947 | 16142 ft | 377 kts | 165° |
| 2026-05-06 07:44 | 53.49781 | 10.29114 | 16928 ft | 380 kts | 165° |
| 2026-05-06 07:44 | 53.47224 | 10.30282 | 17697 ft | 382 kts | 165° |
| 2026-05-06 07:45 | 53.44647 | 10.31455 | 18426 ft | 385 kts | 165° |
| 2026-05-06 07:45 | 53.42045 | 10.32636 | 19121 ft | 389 kts | 165° |
| 2026-05-06 07:45 | 53.39418 | 10.33824 | 19791 ft | 393 kts | 166° |
| 2026-05-06 07:45 | 53.36765 | 10.35015 | 20440 ft | 396 kts | 166° |
| 2026-05-06 07:46 | 53.34089 | 10.36214 | 21070 ft | 400 kts | 166° |
| 2026-05-06 07:46 | 53.31389 | 10.37425 | 21673 ft | 403 kts | 166° |
| 2026-05-06 07:46 | 53.28665 | 10.38647 | 22253 ft | 407 kts | 166° |
| 2026-05-06 07:46 | 53.25918 | 10.39878 | 22820 ft | 410 kts | 166° |
| 2026-05-06 07:47 | 53.23186 | 10.41100 | 23356 ft | 414 kts | 166° |
| 2026-05-06 07:47 | 53.20396 | 10.42345 | 23883 ft | 417 kts | 166° |
| 2026-05-06 07:47 | 53.17585 | 10.43598 | 24389 ft | 420 kts | 166° |
| 2026-05-06 07:47 | 53.14716 | 10.44874 | 24882 ft | 422 kts | 166° |
| 2026-05-06 07:48 | 53.11896 | 10.46098 | 25347 ft | 425 kts | 167° |
| 2026-05-06 07:48 | 53.09004 | 10.47121 | 25815 ft | 427 kts | 170° |
| 2026-05-06 07:48 | 53.06065 | 10.47941 | 26228 ft | 429 kts | 171° |
| 2026-05-06 07:48 | 53.03099 | 10.48721 | 26646 ft | 432 kts | 171° |
| 2026-05-06 07:49 | 53.00124 | 10.49583 | 27053 ft | 434 kts | 170° |
| 2026-05-06 07:49 | 52.97149 | 10.50535 | 27429 ft | 437 kts | 169° |
| 2026-05-06 07:49 | 52.94170 | 10.51517 | 27821 ft | 438 kts | 169° |
| 2026-05-06 07:49 | 52.91166 | 10.52479 | 28178 ft | 440 kts | 169° |
| 2026-05-06 07:50 | 52.88149 | 10.53403 | 28506 ft | 442 kts | 169° |
| 2026-05-06 07:50 | 52.85116 | 10.54315 | 28843 ft | 444 kts | 169° |
| 2026-05-06 07:50 | 52.82071 | 10.55239 | 29161 ft | 446 kts | 169° |
| 2026-05-06 07:50 | 52.79014 | 10.56181 | 29465 ft | 448 kts | 169° |
| 2026-05-06 07:51 | 52.75986 | 10.57121 | 29765 ft | 450 kts | 169° |
| 2026-05-06 07:51 | 52.72905 | 10.58074 | 30050 ft | 451 kts | 169° |
| 2026-05-06 07:51 | 52.69811 | 10.59023 | 30348 ft | 453 kts | 169° |
| 2026-05-06 07:51 | 52.66709 | 10.59968 | 30721 ft | 452 kts | 169° |
| 2026-05-06 07:52 | 52.63618 | 10.60909 | 31101 ft | 451 kts | 169° |
| 2026-05-06 07:52 | 52.60540 | 10.61849 | 31483 ft | 450 kts | 169° |
| 2026-05-06 07:52 | 52.57466 | 10.62788 | 31864 ft | 449 kts | 169° |
| 2026-05-06 07:52 | 52.54402 | 10.63722 | 32214 ft | 447 kts | 169° |
| 2026-05-06 07:53 | 52.51342 | 10.64651 | 32580 ft | 446 kts | 169° |
| 2026-05-06 07:53 | 52.48295 | 10.65574 | 32934 ft | 445 kts | 169° |
| 2026-05-06 07:53 | 52.45249 | 10.66497 | 33284 ft | 444 kts | 169° |
| 2026-05-06 07:53 | 52.42214 | 10.67416 | 33628 ft | 443 kts | 169° |
| 2026-05-06 07:54 | 52.39188 | 10.68331 | 33973 ft | 442 kts | 169° |
| 2026-05-06 07:54 | 52.36174 | 10.69241 | 34312 ft | 440 kts | 169° |
| 2026-05-06 07:54 | 52.33160 | 10.70148 | 34602 ft | 440 kts | 169° |
| 2026-05-06 07:54 | 52.30140 | 10.71056 | 34875 ft | 440 kts | 169° |
| 2026-05-06 07:55 | 52.27127 | 10.71962 | 35140 ft | 441 kts | 169° |
| 2026-05-06 07:55 | 52.24111 | 10.72868 | 35403 ft | 441 kts | 170° |
| 2026-05-06 07:55 | 52.21135 | 10.73761 | 35659 ft | 441 kts | 170° |
| 2026-05-06 07:55 | 52.18116 | 10.74664 | 35916 ft | 441 kts | 170° |
| 2026-05-06 07:56 | 52.15097 | 10.75564 | 36165 ft | 441 kts | 170° |
| 2026-05-06 07:56 | 52.12075 | 10.76465 | 36386 ft | 442 kts | 170° |
| 2026-05-06 07:56 | 52.09047 | 10.77368 | 36603 ft | 443 kts | 170° |
| 2026-05-06 07:56 | 52.06019 | 10.78270 | 36802 ft | 443 kts | 170° |
| 2026-05-06 07:57 | 51.99959 | 10.80070 | 36798 ft | 436 kts | 170° |
| 2026-05-06 07:57 | 51.94018 | 10.81830 | 36799 ft | 434 kts | 170° |
| 2026-05-06 07:58 | 51.88064 | 10.83587 | 36801 ft | 435 kts | 170° |
| 2026-05-06 07:58 | 51.82106 | 10.85343 | 36797 ft | 435 kts | 171° |
| 2026-05-06 07:59 | 51.76148 | 10.87093 | 36793 ft | 435 kts | 171° |
| 2026-05-06 07:59 | 51.70196 | 10.88837 | 36795 ft | 435 kts | 171° |
| 2026-05-06 08:00 | 51.64238 | 10.90614 | 36794 ft | 435 kts | 169° |
| 2026-05-06 08:00 | 51.58310 | 10.92578 | 36785 ft | 435 kts | 169° |
| 2026-05-06 08:01 | 51.52419 | 10.94495 | 36785 ft | 435 kts | 170° |
| 2026-05-06 08:01 | 51.46475 | 10.96372 | 36787 ft | 435 kts | 169° |
| 2026-05-06 08:02 | 51.40532 | 10.98276 | 36782 ft | 435 kts | 169° |
| 2026-05-06 08:02 | 51.34601 | 11.00172 | 36783 ft | 434 kts | 170° |
| 2026-05-06 08:03 | 51.28661 | 11.02055 | 36778 ft | 435 kts | 170° |
| 2026-05-06 08:03 | 51.22732 | 11.03936 | 36777 ft | 434 kts | 170° |
| 2026-05-06 08:04 | 51.16835 | 11.05801 | 36771 ft | 435 kts | 170° |
| 2026-05-06 08:04 | 51.10898 | 11.07671 | 36765 ft | 435 kts | 170° |
| 2026-05-06 08:05 | 51.04968 | 11.09536 | 36763 ft | 434 kts | 170° |
| 2026-05-06 08:05 | 50.99034 | 11.11399 | 36763 ft | 435 kts | 170° |
| 2026-05-06 08:06 | 50.93103 | 11.13253 | 36764 ft | 434 kts | 170° |
| 2026-05-06 08:06 | 50.87174 | 11.15103 | 36766 ft | 434 kts | 170° |
| 2026-05-06 08:07 | 50.81278 | 11.16938 | 36764 ft | 435 kts | 170° |
| 2026-05-06 08:07 | 50.75335 | 11.18783 | 36771 ft | 434 kts | 170° |
| 2026-05-06 08:08 | 50.70407 | 11.20309 | 36775 ft | 434 kts | 170° |
| 2026-05-06 08:08 | 50.64475 | 11.22141 | 36783 ft | 434 kts | 170° |
| 2026-05-06 08:09 | 50.58539 | 11.23972 | 36785 ft | 435 kts | 171° |
| 2026-05-06 08:09 | 50.52603 | 11.25796 | 36796 ft | 434 kts | 171° |
| 2026-05-06 08:10 | 50.46669 | 11.27615 | 36800 ft | 434 kts | 171° |
| 2026-05-06 08:10 | 50.40738 | 11.29429 | 36803 ft | 434 kts | 171° |
| 2026-05-06 08:11 | 50.34813 | 11.31237 | 36812 ft | 434 kts | 171° |
| 2026-05-06 08:11 | 50.28924 | 11.33028 | 36814 ft | 434 kts | 171° |
| 2026-05-06 08:12 | 50.22995 | 11.34828 | 36813 ft | 434 kts | 171° |
| 2026-05-06 08:12 | 50.17065 | 11.36623 | 36818 ft | 433 kts | 171° |
| 2026-05-06 08:13 | 50.11132 | 11.38414 | 36818 ft | 434 kts | 171° |
| 2026-05-06 08:13 | 50.05208 | 11.40199 | 36823 ft | 433 kts | 171° |
| 2026-05-06 08:14 | 49.99327 | 11.41966 | 36820 ft | 433 kts | 171° |
| 2026-05-06 08:14 | 49.93413 | 11.43739 | 36816 ft | 432 kts | 171° |
| 2026-05-06 08:15 | 49.87467 | 11.45515 | 36829 ft | 432 kts | 171° |
| 2026-05-06 08:15 | 49.81595 | 11.47267 | 36828 ft | 432 kts | 171° |
| 2026-05-06 08:16 | 49.75687 | 11.49025 | 36831 ft | 432 kts | 171° |
| 2026-05-06 08:16 | 49.69759 | 11.50783 | 36821 ft | 432 kts | 171° |
| 2026-05-06 08:17 | 49.63845 | 11.52533 | 36825 ft | 432 kts | 171° |
| 2026-05-06 08:17 | 49.57942 | 11.54276 | 36828 ft | 432 kts | 171° |
| 2026-05-06 08:18 | 49.51988 | 11.55156 | 36842 ft | 430 kts | 178° |
| 2026-05-06 08:18 | 49.46050 | 11.55781 | 36836 ft | 430 kts | 178° |
| 2026-05-06 08:19 | 49.40068 | 11.56398 | 36838 ft | 430 kts | 178° |
| 2026-05-06 08:19 | 49.34102 | 11.57027 | 36838 ft | 430 kts | 178° |
| 2026-05-06 08:20 | 49.28131 | 11.57651 | 36841 ft | 430 kts | 178° |
| 2026-05-06 08:20 | 49.22167 | 11.58272 | 36842 ft | 429 kts | 178° |
| 2026-05-06 08:21 | 49.16206 | 11.58892 | 36838 ft | 429 kts | 178° |
| 2026-05-06 08:21 | 49.10247 | 11.59509 | 36843 ft | 429 kts | 178° |
| 2026-05-06 08:22 | 49.04297 | 11.60126 | 36843 ft | 428 kts | 178° |
| 2026-05-06 08:22 | 48.98338 | 11.60739 | 36841 ft | 429 kts | 178° |
| 2026-05-06 08:23 | 48.92388 | 11.61353 | 36840 ft | 428 kts | 178° |
| 2026-05-06 08:23 | 48.86484 | 11.61961 | 36849 ft | 428 kts | 178° |
| 2026-05-06 08:24 | 48.80533 | 11.62569 | 36849 ft | 428 kts | 178° |
| 2026-05-06 08:24 | 48.74589 | 11.63177 | 36848 ft | 428 kts | 178° |
| 2026-05-06 08:25 | 48.68645 | 11.63784 | 36852 ft | 427 kts | 178° |
| 2026-05-06 08:25 | 48.62712 | 11.64387 | 36852 ft | 427 kts | 178° |
| 2026-05-06 08:26 | 48.56783 | 11.64989 | 36852 ft | 426 kts | 178° |
| 2026-05-06 08:26 | 48.50860 | 11.65589 | 36848 ft | 426 kts | 179° |
| 2026-05-06 08:27 | 48.44975 | 11.66183 | 36851 ft | 427 kts | 179° |
| 2026-05-06 08:27 | 48.39054 | 11.66781 | 36848 ft | 426 kts | 179° |
| 2026-05-06 08:28 | 48.33138 | 11.67376 | 36846 ft | 426 kts | 179° |
| 2026-05-06 08:28 | 48.27217 | 11.67969 | 36845 ft | 426 kts | 179° |
| 2026-05-06 08:29 | 48.21301 | 11.68561 | 36846 ft | 426 kts | 179° |
| 2026-05-06 08:29 | 48.15393 | 11.69152 | 36847 ft | 425 kts | 179° |
| 2026-05-06 08:30 | 48.09483 | 11.69741 | 36847 ft | 425 kts | 179° |
| 2026-05-06 08:30 | 48.03579 | 11.70328 | 36846 ft | 425 kts | 179° |
| 2026-05-06 08:31 | 47.97701 | 11.70910 | 36837 ft | 426 kts | 179° |
| 2026-05-06 08:31 | 47.91791 | 11.71496 | 36834 ft | 425 kts | 179° |
| 2026-05-06 08:32 | 47.85892 | 11.72079 | 36844 ft | 425 kts | 179° |
| 2026-05-06 08:32 | 47.79981 | 11.72660 | 36849 ft | 426 kts | 179° |
| 2026-05-06 08:33 | 47.74070 | 11.73240 | 36849 ft | 425 kts | 179° |
| 2026-05-06 08:33 | 47.68163 | 11.73821 | 36844 ft | 426 kts | 179° |
| 2026-05-06 08:34 | 47.59303 | 11.74686 | 36847 ft | 426 kts | 179° |
| 2026-05-06 08:35 | 47.53387 | 11.75264 | 36850 ft | 426 kts | 179° |
| 2026-05-06 08:35 | 47.47470 | 11.75838 | 36843 ft | 426 kts | 179° |
| 2026-05-06 08:36 | 47.41593 | 11.76409 | 36856 ft | 426 kts | 179° |
| 2026-05-06 08:36 | 47.35623 | 11.76916 | 36850 ft | 426 kts | 184° |
| 2026-05-06 08:37 | 47.29762 | 11.76622 | 36853 ft | 424 kts | 184° |
| 2026-05-06 08:37 | 47.23867 | 11.76290 | 36850 ft | 424 kts | 185° |
| 2026-05-06 08:38 | 47.17978 | 11.75958 | 36851 ft | 423 kts | 185° |
| 2026-05-06 08:38 | 47.12077 | 11.75634 | 36864 ft | 425 kts | 185° |
| 2026-05-06 08:39 | 47.06164 | 11.75318 | 36872 ft | 425 kts | 184° |
| 2026-05-06 08:39 | 47.00250 | 11.75010 | 36877 ft | 425 kts | 185° |
| 2026-05-06 08:40 | 46.94333 | 11.74682 | 36896 ft | 425 kts | 185° |
| 2026-05-06 08:40 | 46.88425 | 11.74356 | 36895 ft | 425 kts | 185° |
| 2026-05-06 08:41 | 46.82503 | 11.74035 | 36939 ft | 426 kts | 185° |
| 2026-05-06 08:41 | 46.76568 | 11.73712 | 36928 ft | 426 kts | 185° |
| 2026-05-06 08:42 | 46.70686 | 11.73393 | 36918 ft | 425 kts | 185° |
| 2026-05-06 08:42 | 46.64765 | 11.73072 | 36950 ft | 426 kts | 185° |
| 2026-05-06 08:43 | 46.58829 | 11.72748 | 36947 ft | 426 kts | 185° |
| 2026-05-06 08:43 | 46.52897 | 11.72415 | 36950 ft | 427 kts | 185° |
| 2026-05-06 08:44 | 46.46965 | 11.72081 | 36957 ft | 427 kts | 185° |
| 2026-05-06 08:44 | 46.41035 | 11.71753 | 36978 ft | 427 kts | 185° |
| 2026-05-06 08:45 | 46.35082 | 11.71425 | 36979 ft | 428 kts | 185° |
| 2026-05-06 08:45 | 46.29147 | 11.71110 | 36988 ft | 427 kts | 185° |
| 2026-05-06 08:46 | 46.23209 | 11.70791 | 36988 ft | 427 kts | 185° |
| 2026-05-06 08:46 | 46.17269 | 11.70471 | 36998 ft | 427 kts | 185° |
| 2026-05-06 08:47 | 46.11332 | 11.70156 | 36972 ft | 427 kts | 185° |
| 2026-05-06 08:47 | 46.05437 | 11.69840 | 36983 ft | 427 kts | 185° |
| 2026-05-06 08:48 | 45.99497 | 11.69525 | 36965 ft | 427 kts | 185° |
| 2026-05-06 08:48 | 45.93564 | 11.69211 | 36949 ft | 426 kts | 185° |
| 2026-05-06 08:49 | 45.87634 | 11.68895 | 36965 ft | 427 kts | 185° |
| 2026-05-06 08:49 | 45.81687 | 11.68581 | 36961 ft | 428 kts | 185° |
| 2026-05-06 08:50 | 45.75751 | 11.68269 | 36958 ft | 426 kts | 185° |
| 2026-05-06 08:50 | 45.69818 | 11.67955 | 36958 ft | 427 kts | 185° |
| 2026-05-06 08:51 | 45.63881 | 11.67644 | 36960 ft | 427 kts | 185° |
| 2026-05-06 08:51 | 45.57953 | 11.67247 | 36953 ft | 426 kts | 186° |
| 2026-05-06 08:52 | 45.52031 | 11.66771 | 36952 ft | 426 kts | 186° |
| 2026-05-06 08:52 | 45.46113 | 11.66351 | 36953 ft | 426 kts | 185° |
| 2026-05-06 08:53 | 45.40225 | 11.65934 | 36953 ft | 425 kts | 186° |
| 2026-05-06 08:53 | 45.34304 | 11.65499 | 36951 ft | 426 kts | 186° |
| 2026-05-06 08:54 | 45.28387 | 11.65074 | 36959 ft | 426 kts | 186° |
| 2026-05-06 08:54 | 45.22467 | 11.64649 | 36963 ft | 425 kts | 186° |
| 2026-05-06 08:55 | 45.16546 | 11.64222 | 36950 ft | 426 kts | 186° |
| 2026-05-06 08:55 | 45.10653 | 11.64170 | 36944 ft | 428 kts | 180° |
| 2026-05-06 08:56 | 45.04708 | 11.64691 | 36944 ft | 428 kts | 180° |
| 2026-05-06 08:56 | 44.98762 | 11.64966 | 36934 ft | 427 kts | 182° |
| 2026-05-06 08:57 | 44.93792 | 11.65135 | 36933 ft | 426 kts | 181° |
| 2026-05-06 08:57 | 44.87894 | 11.65438 | 36916 ft | 427 kts | 181° |
| 2026-05-06 08:58 | 44.81956 | 11.65731 | 36926 ft | 427 kts | 181° |
| 2026-05-06 08:58 | 44.76013 | 11.65998 | 36924 ft | 427 kts | 181° |
| 2026-05-06 08:59 | 44.70064 | 11.66278 | 36905 ft | 427 kts | 181° |
| 2026-05-06 08:59 | 44.64126 | 11.66560 | 36915 ft | 426 kts | 181° |
| 2026-05-06 09:00 | 44.58196 | 11.66835 | 36907 ft | 427 kts | 181° |
| 2026-05-06 09:00 | 44.52269 | 11.67569 | 36903 ft | 430 kts | 175° |
| 2026-05-06 09:01 | 44.46368 | 11.68758 | 36915 ft | 426 kts | 175° |
| 2026-05-06 09:01 | 44.40525 | 11.69951 | 36912 ft | 424 kts | 175° |
| 2026-05-06 09:02 | 44.34683 | 11.71118 | 36923 ft | 425 kts | 175° |
| 2026-05-06 09:02 | 44.28830 | 11.72291 | 36917 ft | 425 kts | 175° |
| 2026-05-06 09:03 | 44.22976 | 11.73465 | 36919 ft | 425 kts | 175° |
| 2026-05-06 09:03 | 44.17150 | 11.74630 | 36931 ft | 426 kts | 175° |
| 2026-05-06 09:04 | 44.11284 | 11.75800 | 36934 ft | 425 kts | 175° |
| 2026-05-06 09:04 | 44.05428 | 11.76966 | 36936 ft | 425 kts | 175° |
| 2026-05-06 09:05 | 43.99572 | 11.78130 | 36937 ft | 425 kts | 175° |
| 2026-05-06 09:05 | 43.93715 | 11.79290 | 36942 ft | 425 kts | 175° |
| 2026-05-06 09:06 | 43.87853 | 11.80451 | 36939 ft | 425 kts | 175° |
| 2026-05-06 09:06 | 43.81999 | 11.81607 | 36937 ft | 425 kts | 175° |
| 2026-05-06 09:07 | 43.76141 | 11.82811 | 36944 ft | 426 kts | 173° |
| 2026-05-06 09:07 | 43.70353 | 11.84700 | 36723 ft | 432 kts | 168° |
| 2026-05-06 09:07 | 43.67445 | 11.85752 | 35906 ft | 439 kts | 169° |
| 2026-05-06 09:08 | 43.64417 | 11.86763 | 35088 ft | 444 kts | 171° |
| 2026-05-06 09:08 | 43.61429 | 11.87682 | 34290 ft | 449 kts | 171° |
| 2026-05-06 09:08 | 43.58365 | 11.88606 | 33570 ft | 452 kts | 171° |
| 2026-05-06 09:08 | 43.55307 | 11.89557 | 33041 ft | 449 kts | 171° |
| 2026-05-06 09:09 | 43.52270 | 11.90534 | 32496 ft | 447 kts | 170° |
| 2026-05-06 09:09 | 43.49254 | 11.91514 | 31934 ft | 445 kts | 170° |
| 2026-05-06 09:09 | 43.46246 | 11.92478 | 31381 ft | 443 kts | 170° |
| 2026-05-06 09:09 | 43.43247 | 11.93424 | 30824 ft | 441 kts | 170° |
| 2026-05-06 09:10 | 43.40259 | 11.94360 | 30240 ft | 439 kts | 170° |
| 2026-05-06 09:10 | 43.37289 | 11.95294 | 29665 ft | 437 kts | 170° |
| 2026-05-06 09:10 | 43.34327 | 11.96230 | 29093 ft | 435 kts | 170° |
| 2026-05-06 09:10 | 43.31384 | 11.97162 | 28518 ft | 433 kts | 170° |
| 2026-05-06 09:11 | 43.28448 | 11.98090 | 27949 ft | 432 kts | 170° |
| 2026-05-06 09:11 | 43.25524 | 11.99010 | 27357 ft | 430 kts | 170° |
| 2026-05-06 09:11 | 43.22608 | 11.99926 | 26775 ft | 429 kts | 170° |
| 2026-05-06 09:11 | 43.19740 | 12.00826 | 26194 ft | 427 kts | 169° |
| 2026-05-06 09:12 | 43.16839 | 12.01736 | 25586 ft | 426 kts | 169° |
| 2026-05-06 09:12 | 43.13954 | 12.02642 | 24982 ft | 425 kts | 169° |
| 2026-05-06 09:12 | 43.11067 | 12.03547 | 24373 ft | 423 kts | 169° |
| 2026-05-06 09:12 | 43.08205 | 12.04443 | 23767 ft | 422 kts | 169° |
| 2026-05-06 09:13 | 43.05346 | 12.05336 | 23152 ft | 420 kts | 169° |
| 2026-05-06 09:13 | 43.02501 | 12.06224 | 22534 ft | 419 kts | 169° |
| 2026-05-06 09:13 | 42.99656 | 12.07112 | 21920 ft | 418 kts | 169° |
| 2026-05-06 09:13 | 42.96826 | 12.07995 | 21295 ft | 416 kts | 169° |
| 2026-05-06 09:14 | 42.94046 | 12.08861 | 20672 ft | 415 kts | 169° |
| 2026-05-06 09:14 | 42.91235 | 12.09736 | 20042 ft | 413 kts | 169° |
| 2026-05-06 09:14 | 42.88442 | 12.10605 | 19397 ft | 406 kts | 169° |
| 2026-05-06 09:14 | 42.85720 | 12.11452 | 18772 ft | 396 kts | 169° |
| 2026-05-06 09:15 | 42.83062 | 12.12278 | 18156 ft | 387 kts | 169° |
| 2026-05-06 09:15 | 42.80467 | 12.13082 | 17548 ft | 378 kts | 169° |
| 2026-05-06 09:15 | 42.77928 | 12.13868 | 16946 ft | 370 kts | 169° |
| 2026-05-06 09:15 | 42.75439 | 12.14638 | 16375 ft | 363 kts | 169° |
| 2026-05-06 09:16 | 42.73001 | 12.15391 | 15767 ft | 356 kts | 169° |
| 2026-05-06 09:16 | 42.70602 | 12.16129 | 15182 ft | 349 kts | 170° |
| 2026-05-06 09:16 | 42.68221 | 12.16441 | 14606 ft | 340 kts | 179° |
| 2026-05-06 09:16 | 42.65875 | 12.16590 | 14015 ft | 335 kts | 179° |
| 2026-05-06 09:17 | 42.63568 | 12.16721 | 13445 ft | 329 kts | 179° |
| 2026-05-06 09:17 | 42.61306 | 12.16855 | 12896 ft | 323 kts | 179° |
| 2026-05-06 09:17 | 42.59074 | 12.16990 | 12332 ft | 318 kts | 179° |
| 2026-05-06 09:17 | 42.56872 | 12.17123 | 11795 ft | 315 kts | 179° |
| 2026-05-06 09:18 | 42.54690 | 12.17248 | 11254 ft | 313 kts | 181° |
| 2026-05-06 09:18 | 42.52556 | 12.17040 | 10738 ft | 310 kts | 188° |
| 2026-05-06 09:18 | 42.50455 | 12.16480 | 10292 ft | 304 kts | 198° |
| 2026-05-06 09:18 | 42.48550 | 12.15484 | 10206 ft | 286 kts | 212° |
| 2026-05-06 09:19 | 42.47086 | 12.13760 | 10116 ft | 276 kts | 233° |
| 2026-05-06 09:19 | 42.46104 | 12.11557 | 10048 ft | 274 kts | 243° |
| 2026-05-06 09:19 | 42.45392 | 12.09156 | 10011 ft | 275 kts | 252° |
| 2026-05-06 09:19 | 42.44916 | 12.06658 | 9973 ft | 275 kts | 257° |
| 2026-05-06 09:20 | 42.44539 | 12.04116 | 9963 ft | 274 kts | 260° |
| 2026-05-06 09:20 | 42.44681 | 12.01548 | 10016 ft | 280 kts | 287° |
| 2026-05-06 09:20 | 42.45684 | 11.99305 | 10067 ft | 281 kts | 314° |
| 2026-05-06 09:20 | 42.47344 | 11.97891 | 10123 ft | 286 kts | 340° |
| 2026-05-06 09:21 | 42.49317 | 11.97321 | 10111 ft | 300 kts | 352° |
| 2026-05-06 09:21 | 42.51467 | 11.97435 | 10159 ft | 322 kts | 14° |
| 2026-05-06 09:21 | 42.53539 | 11.98760 | 10209 ft | 336 kts | 36° |
| 2026-05-06 09:21 | 42.55037 | 12.01093 | 10100 ft | 324 kts | 63° |
| 2026-05-06 09:22 | 42.55629 | 12.03957 | 9977 ft | 312 kts | 88° |
| 2026-05-06 09:22 | 42.55322 | 12.06769 | 9816 ft | 300 kts | 112° |
| 2026-05-06 09:22 | 42.54275 | 12.09112 | 9813 ft | 284 kts | 134° |
| 2026-05-06 09:22 | 42.52730 | 12.10707 | 9717 ft | 278 kts | 155° |
| 2026-05-06 09:23 | 42.50895 | 12.11431 | 9689 ft | 275 kts | 171° |
| 2026-05-06 09:23 | 42.48987 | 12.11868 | 9392 ft | 283 kts | 172° |
| 2026-05-06 09:23 | 42.47037 | 12.12277 | 8880 ft | 282 kts | 172° |
| 2026-05-06 09:23 | 42.45104 | 12.12681 | 8384 ft | 280 kts | 171° |
| 2026-05-06 09:24 | 42.43187 | 12.13090 | 7931 ft | 276 kts | 171° |
| 2026-05-06 09:24 | 42.41321 | 12.13500 | 7592 ft | 268 kts | 171° |
| 2026-05-06 09:24 | 42.39503 | 12.13901 | 7303 ft | 263 kts | 171° |
| 2026-05-06 09:24 | 42.37705 | 12.14295 | 7033 ft | 260 kts | 171° |
| 2026-05-06 09:25 | 42.35919 | 12.14682 | 6774 ft | 259 kts | 171° |
| 2026-05-06 09:25 | 42.34132 | 12.15070 | 6558 ft | 260 kts | 171° |
| 2026-05-06 09:25 | 42.32359 | 12.15457 | 6340 ft | 256 kts | 171° |
| 2026-05-06 09:25 | 42.30617 | 12.15839 | 6092 ft | 252 kts | 171° |
| 2026-05-06 09:26 | 42.28915 | 12.16208 | 5868 ft | 248 kts | 171° |
| 2026-05-06 09:26 | 42.27218 | 12.16576 | 5608 ft | 246 kts | 170° |
| 2026-05-06 09:26 | 42.25537 | 12.16940 | 5368 ft | 243 kts | 171° |
| 2026-05-06 09:26 | 42.23874 | 12.17300 | 5158 ft | 241 kts | 171° |
| 2026-05-06 09:27 | 42.22253 | 12.17651 | 4946 ft | 230 kts | 171° |
| 2026-05-06 09:27 | 42.20707 | 12.17986 | 4727 ft | 221 kts | 171° |
| 2026-05-06 09:27 | 42.19209 | 12.18310 | 4570 ft | 216 kts | 171° |
| 2026-05-06 09:27 | 42.17733 | 12.18629 | 4309 ft | 213 kts | 171° |
| 2026-05-06 09:28 | 42.16273 | 12.18943 | 4061 ft | 211 kts | 171° |
| 2026-05-06 09:28 | 42.14826 | 12.19080 | 3819 ft | 208 kts | 183° |
| 2026-05-06 09:28 | 42.13396 | 12.18743 | 3573 ft | 209 kts | 192° |
| 2026-05-06 09:28 | 42.11982 | 12.18318 | 3317 ft | 207 kts | 192° |
| 2026-05-06 09:29 | 42.10595 | 12.17900 | 3085 ft | 200 kts | 192° |
| 2026-05-06 09:29 | 42.09285 | 12.17506 | 3055 ft | 194 kts | 192° |
| 2026-05-06 09:29 | 42.07976 | 12.17115 | 3041 ft | 191 kts | 192° |
| 2026-05-06 09:29 | 42.06668 | 12.16955 | 3059 ft | 189 kts | 175° |
| 2026-05-06 09:30 | 42.05388 | 12.17361 | 3062 ft | 188 kts | 163° |
| 2026-05-06 09:30 | 42.04133 | 12.17896 | 3027 ft | 191 kts | 162° |
| 2026-05-06 09:30 | 42.02881 | 12.18430 | 3046 ft | 188 kts | 162° |
| 2026-05-06 09:30 | 42.01626 | 12.18962 | 3044 ft | 189 kts | 162° |
| 2026-05-06 09:31 | 42.00378 | 12.19489 | 3040 ft | 188 kts | 162° |
| 2026-05-06 09:31 | 41.99136 | 12.20015 | 2989 ft | 184 kts | 162° |
| 2026-05-06 09:31 | 41.97935 | 12.20523 | 2788 ft | 177 kts | 162° |
| 2026-05-06 09:31 | 41.96772 | 12.21014 | 2526 ft | 172 kts | 162° |
| 2026-05-06 09:32 | 41.95655 | 12.21485 | 2321 ft | 166 kts | 162° |
| 2026-05-06 09:32 | 41.94559 | 12.21948 | 2095 ft | 164 kts | 162° |
| 2026-05-06 09:32 | 41.93481 | 12.22403 | 1884 ft | 161 kts | 162° |
| 2026-05-06 09:32 | 41.92429 | 12.22845 | 1635 ft | 154 kts | 162° |
| 2026-05-06 09:33 | 41.91445 | 12.23260 | 1431 ft | 147 kts | 162° |
| 2026-05-06 09:33 | 41.90472 | 12.23671 | 1268 ft | 146 kts | 162° |
| 2026-05-06 09:33 | 41.89512 | 12.24076 | 1053 ft | 143 kts | 161° |
| 2026-05-06 09:33 | 41.88571 | 12.24477 | 881 ft | 142 kts | 162° |
| 2026-05-06 09:34 | 41.87621 | 12.24879 | 692 ft | 144 kts | 162° |
| 2026-05-06 09:34 | 41.86660 | 12.25272 | 509 ft | 145 kts | 162° |
| 2026-05-06 09:34 | 41.85698 | 12.25683 | 300 ft | 145 kts | 162° |
| 2026-05-06 09:34 | 41.84735 | 12.26094 | 93 ft | 145 kts | 162° |
| 2026-05-06 09:35 | 41.83807 | 12.26483 | 22 ft | 125 kts | 162° |
| 2026-05-06 09:35 | 41.83153 | 12.26755 | 19 ft | 74 kts | 162° |
| 2026-05-06 09:35 | 41.82706 | 12.26948 | 24 ft | 62 kts | 162° |
| 2026-05-06 09:35 | 41.82337 | 12.27094 | 13 ft | 51 kts | 166° |
| 2026-05-06 09:36 | 41.82064 | 12.27138 | 13 ft | 30 kts | 184° |
| 2026-05-06 09:36 | 41.81912 | 12.27095 | 14 ft | 11 kts | 193° |
| 2026-05-06 09:36 | 41.81851 | 12.27052 | 16 ft | 10 kts | 233° |
| 2026-05-06 09:36 | 41.81815 | 12.26962 | 15 ft | 12 kts | 233° |
| 2026-05-06 09:37 | 41.81733 | 12.26915 | 20 ft | 16 kts | 191° |
| 2026-05-06 09:37 | 41.81606 | 12.26942 | 22 ft | 22 kts | 163° |
| 2026-05-06 09:37 | 41.81439 | 12.27011 | 19 ft | 28 kts | 163° |
| 2026-05-06 09:37 | 41.81243 | 12.27093 | 16 ft | 27 kts | 162° |
| 2026-05-06 09:38 | 41.81076 | 12.27164 | 14 ft | 26 kts | 162° |
| 2026-05-06 09:38 | 41.80898 | 12.27240 | 10 ft | 27 kts | 163° |
| 2026-05-06 09:38 | 41.80749 | 12.27287 | 13 ft | 22 kts | 181° |
| 2026-05-06 09:38 | 41.80639 | 12.27170 | 15 ft | 22 kts | 244° |
| 2026-05-06 09:39 | 41.80584 | 12.26975 | 14 ft | 22 kts | 249° |
| 2026-05-06 09:39 | 41.80527 | 12.26782 | 14 ft | 23 kts | 248° |
| 2026-05-06 09:39 | 41.80472 | 12.26584 | 15 ft | 23 kts | 253° |
| 2026-05-06 09:39 | 41.80423 | 12.26382 | 14 ft | 23 kts | 251° |
| 2026-05-06 09:40 | 41.80366 | 12.26181 | 14 ft | 23 kts | 248° |
| 2026-05-06 09:40 | 41.80308 | 12.25973 | 13 ft | 24 kts | 252° |
| 2026-05-06 09:40 | 41.80196 | 12.25562 | 17 ft | 23 kts | 250° |
| 2026-05-06 09:41 | 41.80143 | 12.25370 | 21 ft | 22 kts | 249° |
| 2026-05-06 09:41 | 41.80070 | 12.25193 | 17 ft | 21 kts | 207° |
| 2026-05-06 09:41 | 41.79965 | 12.25127 | 16 ft | 17 kts | 204° |
| 2026-05-06 09:41 | 41.79907 | 12.25169 | 16 ft | 11 kts | 115° |
| 2026-05-06 09:42 | 41.79895 | 12.25201 | 16 ft | 0 kts | 116° |